Time;durP1;ratioP1;P1;durP2;ratioP2;P2;SDS_P1;SDS_P2;PMS_P1;PMS_P2;Temp;Humidity;BMP_temperature;BMP_pressure;BME280_temperature;BME280_humidity;BME280_pressure;Samples;Min_cycle;Max_cycle;Signal;HPM_P1;HPM_P2
2022/04/26 03:36:11;;;;;;;3.95;2.97;;;11.40;72.60;;;7.27;89.25;95111.53;5059163;28;20586;-59
2022/04/26 03:38:43;;;;;;;4.20;3.22;;;11.40;72.70;;;7.28;89.23;95108.66;5068976;28;20167;-55
2022/04/26 03:41:10;;;;;;;4.88;3.65;;;11.30;72.70;;;7.24;89.43;95109.41;5050542;28;20475;-54
2022/04/26 03:43:44;;;;;;;6.18;3.67;;;11.40;72.80;;;7.23;89.41;95111.25;5035396;28;20192;-53
2022/04/26 03:46:10;;;;;;;4.80;3.42;;;11.30;72.80;;;7.25;89.33;95114.47;5048929;28;20059;-56
2022/04/26 03:48:35;;;;;;;5.15;3.75;;;11.30;72.70;;;7.25;89.19;95111.00;5066948;28;20078;-53
2022/04/26 03:51:01;;;;;;;5.07;3.92;;;11.30;72.70;;;7.23;89.38;95111.25;5070803;28;20045;-56
2022/04/26 03:53:27;;;;;;;6.53;4.25;;;11.30;72.80;;;7.25;89.36;95117.09;5052211;28;20400;-54
2022/04/26 03:55:53;;;;;;;7.60;4.20;;;11.30;72.80;;;7.24;89.32;95120.00;5052528;28;20067;-54
2022/04/26 03:58:21;;;;;;;7.70;3.78;;;11.30;72.80;;;7.24;89.15;95114.69;5070872;28;20032;-56
2022/04/26 04:00:47;;;;;;;6.30;4.07;;;11.40;72.90;;;7.24;89.31;95114.69;5070380;28;20067;-56
2022/04/26 04:03:13;;;;;;;8.02;4.88;;;11.40;72.80;;;7.23;89.62;95121.84;5052590;28;20033;-54
2022/04/26 04:05:42;;;;;;;8.15;5.10;;;11.40;72.80;;;7.23;89.63;95124.50;5040950;28;20044;-53
2022/04/26 04:08:11;;;;;;;8.60;5.38;;;11.40;72.90;;;7.26;89.56;95124.00;5052659;28;20554;-53
2022/04/26 04:10:40;;;;;;;8.40;5.63;;;11.40;73.00;;;7.25;89.75;95118.97;5048539;28;20036;-54
2022/04/26 04:13:08;;;;;;;8.45;5.57;;;11.40;73.00;;;7.26;89.85;95120.53;5064604;28;20044;-53
2022/04/26 04:15:34;;;;;;;7.95;5.22;;;11.40;73.00;;;7.24;90.07;95114.69;5055066;28;20142;-55
2022/04/26 04:18:00;;;;;;;7.63;5.03;;;11.40;73.00;;;7.29;90.13;95123.47;5040284;28;20072;-53
2022/04/26 04:20:29;;;;;;;7.72;5.07;;;11.40;73.10;;;7.32;89.97;95111.59;5070636;28;20048;-53
2022/04/26 04:22:56;;;;;;;5.93;4.57;;;11.40;73.20;;;7.34;89.92;95112.94;5053445;28;20114;-55
2022/04/26 04:25:22;;;;;;;6.53;5.03;;;11.50;73.30;;;7.36;89.96;95121.44;5062217;28;20047;-56
2022/04/26 04:27:51;;;;;;;6.35;4.75;;;11.50;73.30;;;7.39;89.96;95117.44;5060676;28;20029;-54
2022/04/26 04:30:19;;;;;;;11.60;4.88;;;11.50;73.30;;;7.43;89.90;95123.84;5063042;28;20043;-53
2022/04/26 04:32:45;;;;;;;7.35;5.30;;;11.50;73.40;;;7.44;89.86;95119.34;5055499;28;20036;-54
2022/04/26 04:35:11;;;;;;;7.68;5.63;;;11.50;73.30;;;7.47;89.94;95118.84;5067445;28;20033;-56
2022/04/26 04:37:36;;;;;;;7.10;5.63;;;11.60;73.40;;;7.44;89.83;95116.69;5063281;28;20402;-52
2022/04/26 04:40:02;;;;;;;10.50;5.65;;;11.60;73.30;;;7.49;89.83;95117.53;5069279;28;20040;-57
2022/04/26 04:42:31;;;;;;;8.20;5.15;;;11.60;73.20;;;7.50;89.75;95126.28;5042308;28;20049;-51
2022/04/26 04:45:03;;;;;;;6.97;4.90;;;11.70;73.20;;;7.53;89.70;95126.56;5051465;28;20480;-54
2022/04/26 04:47:32;;;;;;;7.37;5.10;;;11.70;73.20;;;7.56;89.70;95123.41;5064722;28;20055;-52
2022/04/26 04:49:57;;;;;;;6.80;4.85;;;11.70;73.20;;;7.57;89.61;95127.63;5059410;28;20170;-53
2022/04/26 04:52:29;;;;;;;7.23;4.93;;;11.70;73.10;;;7.59;89.41;95130.03;5069626;28;20033;-54
2022/04/26 04:54:55;;;;;;;6.90;4.78;;;11.70;73.10;;;7.59;89.49;95124.75;5057210;28;20614;-56
2022/04/26 04:57:20;;;;;;;6.32;4.93;;;11.80;73.10;;;7.61;89.35;95134.00;5071406;28;20048;-57
2022/04/26 04:59:46;;;;;;;6.68;4.80;;;11.70;73.00;;;7.62;89.50;95135.63;5073037;28;20056;-58
2022/04/26 05:02:12;;;;;;;6.15;4.50;;;11.70;73.10;;;7.64;89.54;95141.44;5067824;28;20098;-52
2022/04/26 05:04:43;;;;;;;6.57;4.75;;;11.70;73.10;;;7.65;89.57;95139.63;5073722;28;20043;-53
2022/04/26 05:07:09;;;;;;;7.03;4.72;;;11.80;73.20;;;7.62;89.57;95135.63;5051042;28;20146;-54
2022/04/26 05:09:35;;;;;;;6.85;4.97;;;11.70;73.20;;;7.65;89.53;95132.47;5073186;28;20028;-55
2022/04/26 05:12:01;;;;;;;7.90;4.90;;;11.80;73.30;;;7.64;89.46;95135.34;5050210;28;20040;-53
2022/04/26 05:14:27;;;;;;;7.25;5.50;;;11.80;73.30;;;7.63;89.28;95136.41;5064140;28;20588;-52
2022/04/26 05:16:56;;;;;;;9.05;5.65;;;11.80;73.20;;;7.63;89.29;95145.16;5069436;28;20043;-52
2022/04/26 05:19:21;;;;;;;7.45;5.80;;;11.80;73.30;;;7.62;89.72;95148.88;5062313;28;20029;-54
2022/04/26 05:21:50;;;;;;;7.93;5.75;;;11.70;73.20;;;7.61;89.59;95146.47;5052760;28;20048;-55
2022/04/26 05:27:00;;;;;;;10.18;6.43;;;11.70;73.30;;;7.61;89.66;95163.16;5054955;28;20163;-58
2022/04/26 05:29:25;;;;;;;10.20;6.72;;;11.70;73.40;;;7.57;89.64;95164.75;5028235;28;20118;-55
2022/04/26 05:31:51;;;;;;;11.43;8.50;;;11.70;73.50;;;7.53;89.85;95176.91;5055764;28;20049;-57
2022/04/26 05:34:17;;;;;;;9.73;6.75;;;11.70;73.60;;;7.47;89.67;95177.94;5054033;28;20509;-52
2022/04/26 05:36:42;;;;;;;9.52;7.32;;;11.70;73.60;;;7.38;88.78;95180.25;5070549;28;20498;-53
2022/04/26 05:39:08;;;;;;;9.95;7.00;;;11.60;73.60;;;7.31;87.63;95168.28;5071026;28;20323;-59
2022/04/26 05:41:34;;;;;;;8.98;6.55;;;11.60;73.50;;;7.33;87.48;95172.28;5069929;28;20037;-57
2022/04/26 05:44:00;;;;;;;9.50;6.80;;;11.60;73.40;;;7.24;86.85;95171.16;4979364;28;20036;-55
2022/04/26 05:46:26;;;;;;;9.77;6.32;;;11.50;73.20;;;7.15;83.92;95170.00;5051008;28;20040;-59
2022/04/26 05:48:51;;;;;;;7.85;6.03;;;11.50;73.00;;;7.08;83.97;95175.53;5070980;28;20039;-56
2022/04/26 05:51:17;;;;;;;8.32;5.97;;;11.40;72.60;;;7.01;84.95;95182.06;5071553;28;20369;-56
2022/04/26 05:53:43;;;;;;;7.57;5.82;;;11.30;72.40;;;6.96;84.20;95172.25;5072177;28;20032;-59
2022/04/26 05:56:10;;;;;;;8.25;5.60;;;11.20;72.30;;;6.83;84.48;95162.84;5077309;28;20028;-56
2022/04/26 05:58:36;;;;;;;8.38;5.30;;;11.10;72.10;;;6.77;84.01;95179.75;5053264;28;20064;-58
2022/04/26 06:01:05;;;;;;;7.28;5.82;;;11.00;72.20;;;6.73;85.06;95175.97;5071108;28;20126;-55
2022/04/26 06:03:31;;;;;;;7.32;5.93;;;11.00;72.00;;;6.78;85.15;95175.25;5072199;28;20098;-56
2022/04/26 06:05:57;;;;;;;7.45;5.75;;;10.90;72.10;;;6.68;85.59;95176.75;5064295;28;20061;-54
2022/04/26 06:08:25;;;;;;;8.00;5.53;;;10.90;72.10;;;6.70;85.60;95168.53;5033413;28;20314;-60
2022/04/26 06:10:51;;;;;;;8.13;5.78;;;10.90;72.10;;;6.68;85.89;95166.16;5063274;28;20041;-56
2022/04/26 06:13:16;;;;;;;10.15;6.18;;;10.90;72.10;;;6.68;86.23;95179.38;5031535;28;20053;-53
2022/04/26 06:15:42;;;;;;;8.38;6.30;;;10.90;72.00;;;6.63;85.82;95195.19;5006565;28;20087;-56
2022/04/26 06:18:08;;;;;;;7.78;5.85;;;10.90;72.00;;;6.56;85.56;95199.91;5038171;28;20112;-60
2022/04/26 06:20:33;;;;;;;8.02;6.45;;;10.80;71.90;;;6.54;86.75;95201.97;5044766;28;20041;-52
2022/04/26 06:23:05;;;;;;;9.18;6.88;;;10.80;72.00;;;6.53;86.91;95208.34;5059044;28;20069;-57
2022/04/26 06:25:36;;;;;;;8.32;6.25;;;10.70;72.10;;;6.52;86.49;95219.97;5036363;28;20060;-57
2022/04/26 06:28:08;;;;;;;8.70;6.28;;;10.70;72.10;;;6.48;87.02;95226.78;5049103;28;20091;-56
2022/04/26 06:30:39;;;;;;;10.88;6.85;;;10.70;72.10;;;6.38;86.25;95219.53;5055079;28;20484;-58
2022/04/26 06:33:06;;;;;;;8.40;6.10;;;10.60;72.20;;;6.40;85.97;95228.03;5031348;28;20064;-60
2022/04/26 06:35:32;;;;;;;8.73;6.03;;;10.60;72.10;;;6.36;86.05;95229.56;5033609;28;20064;-58
2022/04/26 06:38:01;;;;;;;9.90;6.38;;;10.60;72.10;;;6.34;86.11;95233.50;5031662;28;20488;-55
2022/04/26 06:40:27;;;;;;;8.25;6.47;;;10.60;72.00;;;6.29;85.77;95234.22;5031120;28;20092;-59
2022/04/26 06:42:52;;;;;;;10.02;6.57;;;10.60;71.90;;;6.34;85.87;95247.53;5024777;28;20121;-57
2022/04/26 06:45:18;;;;;;;8.77;6.07;;;10.70;71.90;;;6.37;86.01;95244.41;5066865;28;20556;-57
2022/04/26 06:47:44;;;;;;;8.43;6.00;;;10.70;71.80;;;6.35;85.62;95250.97;5051872;28;20136;-53
2022/04/26 06:50:10;;;;;;;7.38;5.88;;;10.70;71.60;;;6.36;85.40;95252.56;5054218;28;20495;-59
2022/04/26 06:52:36;;;;;;;21.17;6.68;;;10.70;71.60;;;6.30;85.74;95250.91;5072122;28;20046;-57
2022/04/26 06:55:03;;;;;;;8.35;6.10;;;10.60;71.50;;;6.31;86.26;95258.59;5059065;28;20053;-58
2022/04/26 06:57:41;;;;;;;8.38;6.00;;;10.60;71.60;;;6.33;86.06;95259.16;5072253;28;20444;-56
2022/04/26 07:00:09;;;;;;;8.35;6.15;;;10.60;71.60;;;6.34;85.49;95258.13;5054285;28;20459;-55
2022/04/26 07:02:35;;;;;;;8.63;6.50;;;10.70;71.50;;;6.35;85.66;95256.25;5053556;28;20094;-60
2022/04/26 07:05:03;;;;;;;7.88;6.50;;;10.70;71.40;;;6.37;85.80;95259.47;5072010;28;20044;-59
2022/04/26 07:07:29;;;;;;;8.68;6.18;;;10.70;71.40;;;6.37;85.36;95264.75;5071137;28;20040;-57
2022/04/26 07:09:55;;;;;;;9.23;7.07;;;10.80;71.40;;;6.42;85.91;95265.59;5067840;28;20106;-53
2022/04/26 07:12:23;;;;;;;9.63;6.13;;;10.80;71.40;;;6.46;85.92;95268.59;5047387;28;20059;-57
2022/04/26 07:14:49;;;;;;;7.20;5.78;;;10.80;71.40;;;6.46;85.93;95266.72;5071347;28;20418;-55
2022/04/26 07:17:18;;;;;;;8.48;6.15;;;10.80;71.30;;;6.46;85.99;95271.22;5071180;28;20044;-56
2022/04/26 07:19:44;;;;;;;9.93;6.97;;;10.80;71.30;;;6.45;85.75;95270.41;5051749;28;20052;-58
2022/04/26 07:22:10;;;;;;;9.73;6.43;;;10.80;71.30;;;6.44;85.27;95276.75;5037673;28;20040;-57
2022/04/26 07:24:41;;;;;;;10.02;6.60;;;10.80;71.30;;;6.46;85.49;95284.47;5064413;28;20086;-57
2022/04/26 07:27:07;;;;;;;8.63;6.97;;;10.90;71.30;;;6.47;86.14;95288.69;5051108;28;20060;-53
2022/04/26 07:29:34;;;;;;;9.95;7.57;;;10.90;71.30;;;6.52;86.63;95299.34;5032193;28;20044;-55
2022/04/26 07:32:02;;;;;;;7.75;6.35;;;10.90;71.30;;;6.54;86.44;95304.38;5070773;28;20040;-56
2022/04/26 07:34:29;;;;;;;9.68;6.35;;;10.90;71.30;;;6.48;86.05;95319.41;5076123;22;20044;-58
2022/04/26 07:37:03;;;;;;;11.38;6.53;;;10.90;71.20;;;6.47;86.28;95320.44;5005734;28;20205;-53
2022/04/26 07:39:35;;;;;;;9.70;6.88;;;10.90;71.30;;;6.51;86.31;95316.25;5004690;28;20121;-54
2022/04/26 07:42:02;;;;;;;8.95;6.20;;;10.90;71.50;;;6.55;86.47;95325.34;5006612;28;20405;-57
2022/04/26 07:44:29;;;;;;;9.38;6.80;;;10.90;71.50;;;6.57;86.59;95335.66;5010770;28;20046;-57
2022/04/26 07:46:58;;;;;;;8.77;6.45;;;10.90;71.40;;;6.56;85.96;95345.44;5049145;28;20037;-55
2022/04/26 07:49:27;;;;;;;9.48;6.72;;;10.90;71.40;;;6.44;86.29;95339.47;5033582;28;20087;-54
2022/04/26 07:52:02;;;;;;;12.13;6.97;;;10.90;71.30;;;6.51;86.15;95347.22;5016616;28;20033;-58
2022/04/26 07:54:28;;;;;;;12.13;6.90;;;10.90;71.30;;;6.49;85.73;95358.88;5032918;28;20037;-59
2022/04/26 07:56:57;;;;;;;11.23;7.03;;;10.90;72.00;;;6.52;86.02;95354.09;5031973;28;20048;-57
2022/04/26 07:59:22;;;;;;;8.10;6.03;;;10.90;71.20;;;6.41;85.32;95359.25;5033321;28;20036;-58
2022/04/26 08:01:48;;;;;;;9.23;6.10;;;10.90;71.10;;;6.40;85.94;95357.66;5033337;28;20091;-58
2022/04/26 08:04:14;;;;;;;7.85;5.85;;;10.90;71.00;;;6.51;85.48;95368.38;5016426;28;20037;-56
2022/04/26 08:06:39;;;;;;;8.57;6.35;;;10.90;71.00;;;6.45;85.52;95354.28;5048205;28;20047;-55
2022/04/26 08:09:05;;;;;;;7.97;5.70;;;11.00;71.00;;;6.53;85.53;95361.81;5029403;28;20039;-58
2022/04/26 08:11:31;;;;;;;8.20;6.00;;;11.10;70.90;;;6.58;85.09;95363.72;5030889;28;20037;-56
2022/04/26 08:13:57;;;;;;;12.52;5.95;;;11.20;70.80;;;6.54;85.86;95349.38;5029223;28;20051;-57
2022/04/26 08:16:22;;;;;;;6.47;5.32;;;11.30;70.70;;;6.64;85.60;95354.81;5029129;28;20094;-59
2022/04/26 08:18:48;;;;;;;8.20;5.32;;;11.40;70.40;;;6.76;86.03;95349.41;5029038;28;20080;-58
2022/04/26 08:21:17;;;;;;;6.15;4.70;;;11.50;70.40;;;6.83;85.13;95350.00;5016380;28;20037;-57
2022/04/26 08:29:14;;;;;;;5.20;4.07;;;12.30;69.60;;;7.34;83.23;95364.66;5034901;28;20114;-56
2022/04/26 08:31:41;;;;;;;5.75;3.95;;;12.70;69.20;;;7.52;80.64;95383.88;5032207;28;20040;-58
2022/04/26 08:34:10;;;;;;;4.93;4.03;;;12.90;68.60;;;7.62;79.78;95403.38;5032744;28;20041;-56
2022/04/26 08:36:36;;;;;;;5.43;4.28;;;12.80;68.20;;;7.67;81.68;95412.41;5040398;28;20049;-55
2022/04/26 08:39:02;;;;;;;5.50;4.63;;;12.80;68.20;;;7.62;83.62;95413.19;5026953;28;20049;-59
2022/04/26 08:41:34;;;;;;;7.63;5.53;;;12.70;68.10;;;7.49;83.02;95418.84;5028990;28;20037;-58
2022/04/26 08:44:01;;;;;;;8.95;6.25;;;12.60;68.10;;;7.50;83.59;95426.56;5030341;28;20606;-56
2022/04/26 08:50:59;;;;;;;9.60;7.10;;;12.40;68.10;;;7.53;83.88;95423.41;5026950;28;20058;-58
2022/04/26 08:52:06;;;;;;;6.82;6.10;;;12.30;68.50;;;7.53;82.97;95428.72;5034780;28;20039;-58
2022/04/26 08:54:32;;;;;;;8.60;6.18;;;12.30;68.60;;;7.50;83.31;95431.06;5015849;28;20072;-58
2022/04/26 08:56:59;;;;;;;7.38;6.10;;;12.20;68.70;;;7.47;83.30;95431.56;5009770;28;20076;-54
2022/04/26 08:59:31;;;;;;;8.02;6.55;;;12.10;68.80;;;7.42;83.42;95437.59;5008736;28;20486;-58
2022/04/26 09:02:19;;;;;;;9.15;6.20;;;12.20;68.80;;;7.40;83.04;95435.22;5049066;28;20037;-55
2022/04/26 09:05:09;;;;;;;9.18;6.20;;;12.10;68.50;;;7.37;81.73;95443.66;5036876;28;20026;-57
2022/04/26 09:07:39;;;;;;;7.38;5.97;;;12.10;68.20;;;7.42;82.33;95440.25;5042260;28;20496;-55
2022/04/26 09:10:15;;;;;;;6.70;5.57;;;12.20;68.30;;;7.40;81.15;95423.81;5011887;28;20120;-57
2022/04/26 09:13:12;;;;;;;7.30;6.07;;;12.30;68.20;;;7.48;80.54;95425.19;5030237;28;20503;-58
2022/04/26 09:15:49;;;;;;;6.35;5.65;;;12.40;68.10;;;7.45;81.28;95439.75;5036419;28;20452;-56
2022/04/26 09:18:24;;;;;;;8.32;6.03;;;12.40;67.80;;;7.59;82.21;95456.88;5031233;28;20037;-57
2022/04/26 09:20:53;;;;;;;8.18;5.38;;;12.50;67.70;;;7.62;81.97;95459.03;5045913;28;20029;-53
2022/04/26 09:23:24;;;;;;;9.93;6.07;;;12.50;67.70;;;7.71;82.53;95464.72;5028086;28;20060;-56
2022/04/26 09:26:08;;;;;;;8.15;6.22;;;12.50;67.80;;;7.68;82.15;95465.22;5026612;28;20071;-57
2022/04/26 09:28:39;;;;;;;6.75;5.10;;;12.50;67.70;;;7.59;81.58;95459.53;5028000;28;20499;-59
2022/04/26 09:31:22;;;;;;;6.47;5.07;;;12.60;67.40;;;7.65;81.52;95455.09;5031537;28;20041;-59
2022/04/26 09:33:56;;;;;;;6.65;4.82;;;12.60;67.30;;;7.69;81.21;95458.84;5022082;28;20035;-57
2022/04/26 09:36:25;;;;;;;6.93;4.82;;;12.70;67.00;;;7.63;79.79;95447.38;5022450;28;20033;-58
2022/04/26 09:38:57;;;;;;;6.22;4.70;;;13.00;66.50;;;7.81;80.23;95462.16;5030127;28;20151;-56
2022/04/26 09:41:26;;;;;;;5.68;4.43;;;13.20;66.10;;;7.82;78.46;95455.78;5043999;28;20032;-56
2022/04/26 09:44:01;;;;;;;7.35;4.57;;;13.40;65.70;;;7.95;80.21;95451.13;5043962;28;20052;-56
2022/04/26 09:46:54;;;;;;;6.93;4.60;;;13.60;65.20;;;8.11;81.06;95461.63;5017547;28;20399;-54
2022/04/26 09:49:21;;;;;;;8.17;4.57;;;13.90;65.00;;;8.13;77.85;95473.88;5043615;28;20123;-57
2022/04/26 09:52:03;;;;;;;5.47;4.38;;;14.20;64.10;;;8.44;79.62;95473.09;5031205;28;20295;-55
2022/04/26 09:54:32;;;;;;;4.40;3.88;;;14.40;63.80;;;8.60;77.91;95478.53;5036509;28;20041;-56
2022/04/26 09:56:59;;;;;;;4.68;4.13;;;14.70;63.40;;;8.60;78.62;95495.25;5030886;28;20116;-59
2022/04/26 09:59:37;;;;;;;4.53;4.10;;;14.70;63.20;;;8.52;78.71;95495.72;5041417;28;20040;-56
2022/04/26 10:02:13;;;;;;;4.63;3.92;;;14.70;62.80;;;8.68;78.50;95502.78;5035002;28;20102;-56
2022/04/26 10:04:47;;;;;;;9.75;3.97;;;14.90;62.30;;;8.98;78.26;95502.16;5035358;28;20037;-57
2022/04/26 10:07:17;;;;;;;3.92;3.50;;;15.20;62.20;;;9.09;76.00;95511.03;5026615;28;20103;-57
2022/04/26 10:09:46;;;;;;;5.60;4.57;;;15.40;61.70;;;9.20;77.97;95514.53;5028359;28;20033;-57
2022/04/26 10:12:14;;;;;;;3.95;3.10;;;15.50;60.70;;;9.23;74.68;95522.78;5043972;28;20049;-54
2022/04/26 10:14:40;;;;;;;7.30;3.42;;;15.60;60.10;;;9.08;74.59;95508.59;5051630;28;20079;-53
2022/04/26 10:17:14;;;;;;;3.65;3.10;;;15.50;59.50;;;9.14;73.64;95504.94;5019114;28;20077;-52
2022/04/26 10:19:43;;;;;;;3.60;3.03;;;15.40;59.40;;;9.18;75.83;95519.28;5061740;28;20036;-58
2022/04/26 10:22:10;;;;;;;4.70;2.80;;;15.30;59.60;;;9.29;73.80;95513.00;5042008;28;20036;-57
2022/04/26 10:24:42;;;;;;;3.47;3.10;;;15.50;59.40;;;9.50;73.22;95516.56;4994860;28;20047;-59
2022/04/26 10:27:23;;;;;;;3.47;2.30;;;15.70;59.10;;;9.63;72.30;95520.59;4975957;28;20093;-55
2022/04/26 10:29:49;;;;;;;2.15;1.95;;;16.00;58.50;;;9.60;71.37;95523.78;4970516;28;20047;-53
2022/04/26 10:32:38;;;;;;;2.20;1.90;;;16.30;57.40;;;9.76;72.67;95533.41;4972100;28;20106;-56
2022/04/26 10:35:26;;;;;;;2.45;1.92;;;16.50;56.90;;;9.90;72.37;95531.88;4989823;28;20422;-55
2022/04/26 10:38:14;;;;;;;1.98;1.77;;;16.50;57.00;;;9.92;72.18;95521.75;4959725;28;20045;-57
2022/04/26 10:41:04;;;;;;;3.97;1.80;;;16.50;57.00;;;9.68;71.75;95529.41;4972584;28;20045;-59
2022/04/26 10:43:33;;;;;;;1.88;1.63;;;16.30;56.20;;;9.63;71.25;95529.38;4971450;28;20041;-59
2022/04/26 10:46:16;;;;;;;1.80;1.70;;;16.10;56.30;;;9.77;72.91;95536.88;4975188;28;20034;-58
2022/04/26 10:48:42;;;;;;;1.75;1.60;;;16.40;55.80;;;9.99;70.55;95531.38;5034631;28;20053;-58
2022/04/26 10:51:36;;;;;;;1.55;1.40;;;16.70;55.70;;;9.85;72.13;95528.41;5031343;28;20045;-57
2022/04/26 10:54:05;;;;;;;1.52;1.42;;;16.90;54.50;;;10.24;70.08;95527.97;5033783;28;20042;-58
2022/04/26 10:56:32;;;;;;;1.90;1.70;;;17.30;54.50;;;10.57;69.39;95529.38;5047119;28;20033;-59
2022/04/26 10:58:58;;;;;;;1.88;1.67;;;17.70;54.00;;;10.87;71.40;95520.59;5030735;28;20044;-58
2022/04/26 11:01:27;;;;;;;2.28;2.08;;;18.20;53.50;;;11.39;64.55;95510.66;5016194;28;20033;-59
2022/04/26 11:03:55;;;;;;;2.78;1.98;;;18.90;52.50;;;12.23;65.54;95514.31;5030551;28;21533;-60
2022/04/26 11:06:34;;;;;;;1.38;1.27;;;19.70;52.30;;;12.39;61.38;95510.47;5048945;28;20045;-60
2022/04/26 11:09:06;;;;;;;2.25;1.60;;;20.20;50.90;;;12.09;64.07;95522.13;5037273;28;20098;-60
2022/04/26 11:11:46;;;;;;;2.22;1.70;;;20.20;49.40;;;12.13;63.91;95514.41;5037826;28;20045;-59
2022/04/26 11:14:17;;;;;;;1.95;1.50;;;20.10;49.00;;;12.21;61.65;95529.81;5016811;28;20053;-58
2022/04/26 11:17:00;;;;;;;3.92;1.30;;;20.00;49.10;;;12.23;61.47;95522.34;5028366;28;20032;-58
2022/04/26 11:19:30;;;;;;;;;;;19.80;48.20;;;12.44;60.16;95518.47;5046145;28;20037;-59
2022/04/26 11:22:07;;;;;;;1.85;1.75;;;20.10;48.90;;;12.80;61.90;95523.53;5031045;28;19917;-60
2022/04/26 11:30:06;;;;;;;2.28;1.63;;;21.60;47.30;;;14.33;56.13;95532.63;5028229;28;20435;-58
2022/04/26 11:32:34;;;;;;;1.80;1.70;;;22.30;46.50;;;14.70;56.96;95533.75;5026561;28;20041;-58
2022/04/26 11:35:02;;;;;;;2.00;1.85;;;22.90;45.80;;;14.35;56.22;95517.06;5024550;28;20065;-58
2022/04/26 11:37:28;;;;;;;3.97;1.73;;;23.40;43.10;;;14.42;55.10;95511.34;5010415;28;20033;-60
2022/04/26 11:39:54;;;;;;;1.73;1.63;;;23.70;42.00;;;14.78;55.37;95522.34;5026821;28;20121;-60
2022/04/26 11:42:20;;;;;;;2.33;1.60;;;23.70;42.10;;;14.20;55.49;95527.19;5025035;28;20112;-60
2022/04/26 11:45:06;;;;;;;2.15;1.88;;;23.70;40.50;;;13.87;52.81;95519.81;5024901;28;20056;-57
2022/04/26 11:47:48;;;;;;;2.25;2.00;;;23.40;39.90;;;14.32;57.97;95517.66;5024872;28;20037;-58
2022/04/26 11:50:26;;;;;;;2.05;1.80;;;23.50;40.30;;;14.77;55.01;95512.72;5001484;28;20057;-59
2022/04/26 11:52:59;;;;;;;1.95;1.83;;;23.70;40.70;;;14.66;53.56;95516.63;5019429;28;20493;-59
2022/04/26 11:55:29;;;;;;;;;;;23.50;39.90;;;14.68;50.58;95510.97;5010755;28;20511;-59
2022/04/26 11:58:27;;;;;;;2.28;2.05;;;23.70;40.50;;;14.78;56.04;95508.13;5024372;28;19943;-59
2022/04/26 12:01:02;;;;;;;3.78;2.45;;;23.90;39.50;;;15.17;53.06;95502.41;4989963;28;20519;-56
2022/04/26 12:03:38;;;;;;;3.33;2.67;;;24.20;39.50;;;15.07;51.02;95509.81;5019075;28;20030;-59
2022/04/26 12:06:09;;;;;;;2.50;2.30;;;24.50;37.90;;;14.95;52.38;95512.97;5017846;28;20384;-58
2022/04/26 12:09:05;;;;;;;2.92;2.50;;;24.80;36.20;;;15.45;50.61;95505.13;5023632;28;20357;-59
2022/04/26 12:11:37;;;;;;;3.58;2.70;;;25.00;36.00;;;15.45;50.10;95481.75;4994476;28;20041;-57
2022/04/26 12:14:12;;;;;;;3.45;2.83;;;25.40;35.00;;;16.06;47.75;95485.13;5010037;28;20239;-58
2022/04/26 12:16:55;;;;;;;3.38;3.00;;;25.70;34.80;;;16.41;47.93;95488.13;5023593;28;20236;-58
2022/04/26 12:19:37;;;;;;;5.55;2.97;;;25.90;34.80;;;16.70;48.99;95474.25;5023662;28;20462;-57
2022/04/26 12:22:04;;;;;;;2.95;2.65;;;26.10;35.20;;;17.00;48.19;95488.13;4989995;28;20049;-58
2022/04/26 12:24:47;;;;;;;3.30;3.00;;;26.30;34.80;;;16.92;47.61;95486.94;5027659;28;20386;-58
2022/04/26 12:27:15;;;;;;;5.68;2.80;;;26.50;34.20;;;17.11;45.09;95482.19;5024892;28;20183;-56
2022/04/26 12:29:46;;;;;;;2.67;2.45;;;26.60;34.50;;;16.68;46.53;95475.69;4985041;28;20041;-58
2022/04/26 12:32:18;;;;;;;4.35;3.10;;;26.40;33.40;;;16.59;49.02;95478.31;5003840;28;20151;-57
2022/04/26 12:35:00;;;;;;;4.78;3.08;;;26.30;33.30;;;17.01;46.31;95474.34;5025362;28;20515;-60
2022/04/26 12:37:29;;;;;;;3.60;3.30;;;26.60;33.20;;;16.92;45.37;95478.09;5011201;28;20089;-58
2022/04/26 12:40:19;;;;;;;4.22;3.13;;;26.70;32.80;;;16.27;46.22;95476.63;5017837;28;20037;-57
2022/04/26 12:42:45;;;;;;;3.50;3.20;;;26.40;31.40;;;15.98;46.73;95475.06;5013918;28;20069;-58
2022/04/26 12:45:24;;;;;;;3.85;3.35;;;26.50;31.00;;;16.50;46.92;95486.31;5027755;28;20036;-56
2022/04/26 12:50:56;;;;;;;3.17;2.80;;;26.00;31.80;;;16.17;47.94;95488.41;5021731;28;20096;-58
2022/04/26 12:53:28;;;;;;;2.83;2.50;;;25.40;32.40;;;16.19;46.34;95475.44;5027777;28;20045;-56
2022/04/26 12:56:05;;;;;;;3.17;2.88;;;25.00;32.50;;;16.42;44.13;95474.41;5033391;28;20504;-58
2022/04/26 12:58:37;;;;;;;4.43;3.20;;;25.00;32.90;;;16.20;45.63;95477.03;5028700;28;20038;-58
2022/04/26 13:01:05;;;;;;;3.67;3.30;;;25.20;32.10;;;16.73;43.67;95473.66;5010335;28;20112;-58
2022/04/26 13:03:32;;;;;;;5.35;3.33;;;25.60;32.20;;;16.86;43.96;95480.13;4989098;28;20046;-54
2022/04/26 13:06:07;;;;;;;3.88;2.40;;;25.80;31.90;;;16.56;46.46;95482.41;5045970;28;20044;-56
2022/04/26 13:08:34;;;;;;;3.22;2.63;;;25.80;31.60;;;16.50;43.40;95470.16;5027717;28;20053;-63
2022/04/26 13:11:00;;;;;;;3.92;3.00;;;25.70;31.40;;;16.49;41.70;95473.19;5028264;28;20642;-59
2022/04/26 13:13:29;;;;;;;3.40;3.10;;;25.60;31.00;;;16.82;41.59;95474.53;5030067;28;20369;-58
2022/04/26 13:15:55;;;;;;;3.15;2.60;;;26.00;30.60;;;16.48;41.98;95474.25;5010652;28;20494;-56
2022/04/26 13:18:34;;;;;;;3.08;2.88;;;26.10;30.10;;;16.23;45.15;95468.34;5046369;28;20049;-58
2022/04/26 13:21:01;;;;;;;3.95;3.20;;;26.10;29.50;;;16.57;42.33;95470.53;5048324;28;20582;-57
2022/04/26 13:23:30;;;;;;;5.00;3.08;;;26.00;29.70;;;16.76;40.26;95467.69;5013662;28;20085;-59
2022/04/26 13:25:59;;;;;;;5.57;3.40;;;26.20;29.40;;;17.15;40.77;95470.78;5033294;28;20503;-57
2022/04/26 13:28:25;;;;;;;3.58;3.28;;;26.40;29.40;;;16.95;41.15;95474.78;5056042;28;20086;-59
2022/04/26 13:30:51;;;;;;;3.42;2.80;;;26.70;28.90;;;16.86;40.63;95464.78;5042712;28;20553;-57
2022/04/26 13:33:20;;;;;;;3.35;2.72;;;26.90;28.40;;;17.02;41.71;95478.63;5034902;28;20172;-56
2022/04/26 13:35:47;;;;;;;5.22;2.83;;;26.70;28.40;;;17.06;41.87;95474.22;5053499;22;20049;-54
2022/04/26 13:38:14;;;;;;;3.15;2.40;;;26.50;28.60;;;16.86;40.87;95463.97;5042609;28;20037;-53
2022/04/26 13:40:42;;;;;;;3.75;2.30;;;26.00;28.60;;;16.46;41.23;95463.03;5035666;28;20046;-54
2022/04/26 13:43:10;;;;;;;3.55;2.28;;;25.30;28.70;;;16.22;42.00;95477.53;5042749;28;20116;-53
2022/04/26 13:45:38;;;;;;;3.55;2.05;;;24.60;29.30;;;15.56;43.36;95509.19;5045520;28;20060;-54
2022/04/26 13:48:11;;;;;;;1.95;1.70;;;23.80;30.00;;;15.09;48.18;95513.78;5052536;28;20627;-54
2022/04/26 13:50:38;;;;;;;1.67;1.35;;;23.10;31.40;;;14.28;49.42;95510.47;5059916;28;20032;-51
2022/04/26 13:53:04;;;;;;;1.52;1.35;;;22.20;32.60;;;13.91;49.99;95505.84;5034933;28;20050;-54
2022/04/26 13:55:30;;;;;;;2.70;1.60;;;21.50;33.60;;;13.76;50.84;95504.19;5041594;28;20037;-56
2022/04/26 13:57:56;;;;;;;1.70;1.60;;;21.00;34.60;;;13.42;52.62;95503.22;5032884;28;20424;-52
2022/04/26 14:00:22;;;;;;;2.08;1.70;;;20.50;35.40;;;13.16;56.75;95517.88;5060333;28;20032;-52
2022/04/26 14:02:49;;;;;;;2.70;2.20;;;20.00;37.00;;;13.04;59.93;95520.94;5048439;28;20063;-50
2022/04/26 14:05:23;;;;;;;2.85;2.00;;;19.50;38.40;;;12.83;61.83;95528.34;5043199;28;20041;-51
2022/04/26 14:07:51;;;;;;;2.97;1.92;;;19.20;40.00;;;12.82;62.03;95512.59;5031130;28;20053;-59
2022/04/26 14:10:17;;;;;;;4.28;2.25;;;19.10;40.40;;;13.04;65.50;95504.91;5034257;28;20036;-50
2022/04/26 14:12:43;;;;;;;2.40;2.20;;;19.50;41.10;;;13.06;62.90;95500.06;5052590;28;20536;-54
2022/04/26 14:23:35;;;;;;;3.42;2.35;;;20.10;41.40;;;13.38;59.74;95491.50;5054593;28;20442;-52
2022/04/26 14:26:03;;;;;;;3.58;2.55;;;19.80;41.90;;;13.08;59.11;95487.22;5038056;28;20037;-48
2022/04/26 14:28:29;;;;;;;4.07;3.20;;;19.50;42.20;;;13.15;57.51;95485.00;5034736;28;20091;-50
2022/04/26 14:31:00;;;;;;;4.05;2.83;;;19.40;42.30;;;13.11;59.09;95485.84;5055316;28;20458;-49
2022/04/26 14:33:26;;;;;;;3.88;2.80;;;19.20;42.80;;;12.87;56.76;95480.44;5029690;28;20049;-51
2022/04/26 14:35:51;;;;;;;4.20;2.80;;;19.00;43.30;;;12.77;57.69;95483.22;5050109;28;20533;-51
2022/04/26 14:38:17;;;;;;;4.40;3.00;;;18.70;43.00;;;12.81;60.27;95493.06;5055450;28;20056;-48